createdAt,value
2023-05-12T00:02:13.571Z,13.36
2023-05-12T00:04:40.416Z,13.28
2023-05-12T00:07:07.339Z,13.21
2023-05-12T00:09:34.126Z,13.20
2023-05-12T00:12:02.369Z,13.13
2023-05-12T00:14:29.225Z,13.04
2023-05-12T00:16:55.733Z,12.95
2023-05-12T00:19:22.255Z,12.96
2023-05-12T00:21:49.089Z,12.89
2023-05-12T00:24:15.608Z,12.83
2023-05-12T00:26:42.290Z,12.87
2023-05-12T00:29:08.752Z,12.80
2023-05-12T00:31:35.348Z,12.80
2023-05-12T00:34:02.395Z,12.70
2023-05-12T00:36:28.849Z,12.65
2023-05-12T00:38:55.697Z,12.64
2023-05-12T00:41:22.265Z,12.61
2023-05-12T00:43:48.982Z,12.59
2023-05-12T00:46:15.809Z,12.54
2023-05-12T00:48:42.691Z,12.53
2023-05-12T00:51:10.104Z,12.53
2023-05-12T00:53:48.297Z,12.48
2023-05-12T00:56:19.792Z,12.48
2023-05-12T00:58:46.635Z,12.44
2023-05-12T01:01:13.470Z,12.43
2023-05-12T01:03:40.268Z,12.39
2023-05-12T01:06:14.614Z,12.35
2023-05-12T01:08:41.182Z,12.28
2023-05-12T01:11:08.007Z,12.30
2023-05-12T01:13:34.746Z,12.25
2023-05-12T01:16:02.870Z,12.24
2023-05-12T01:18:31.862Z,12.17
2023-05-12T01:21:00.549Z,12.21
2023-05-12T01:23:33.888Z,12.20
2023-05-12T01:26:07.265Z,12.14
2023-05-12T01:28:35.543Z,12.04
2023-05-12T01:31:03.642Z,12.07
2023-05-12T01:33:30.139Z,12.03
2023-05-12T01:35:56.841Z,11.97
2023-05-12T01:38:24.878Z,11.96
2023-05-12T01:40:51.594Z,11.93
2023-05-12T01:43:18.945Z,11.93
2023-05-12T01:45:49.106Z,11.90
2023-05-12T01:48:15.716Z,11.88
2023-05-12T01:50:42.138Z,11.82
2023-05-12T01:53:08.874Z,11.76
2023-05-12T01:55:35.332Z,11.76
2023-05-12T01:58:01.848Z,11.65
2023-05-12T02:00:31.369Z,11.62
2023-05-12T02:02:58.112Z,11.61
2023-05-12T02:05:24.928Z,11.51
2023-05-12T02:07:51.778Z,11.50
2023-05-12T02:10:18.675Z,11.45
2023-05-12T02:12:45.675Z,11.48
2023-05-12T02:15:12.167Z,11.33
2023-05-12T02:17:38.903Z,11.33
2023-05-12T02:20:06.091Z,11.24
2023-05-12T02:22:32.654Z,11.26
2023-05-12T02:24:59.365Z,11.18
2023-05-12T02:27:25.938Z,11.16
2023-05-12T02:29:52.789Z,11.14
2023-05-12T02:32:19.531Z,11.13
2023-05-12T02:34:48.493Z,11.09
2023-05-12T02:37:15.248Z,11.12
2023-05-12T02:39:41.724Z,11.11
2023-05-12T02:42:08.660Z,11.00
2023-05-12T02:44:35.301Z,10.96
2023-05-12T02:47:01.867Z,10.89
2023-05-12T02:49:28.605Z,10.95
2023-05-12T02:51:55.353Z,10.82
2023-05-12T02:54:21.810Z,10.87
2023-05-12T02:56:49.413Z,10.88
2023-05-12T02:59:16.112Z,10.77
2023-05-12T03:01:42.692Z,10.68
2023-05-12T03:04:09.381Z,10.62
2023-05-12T03:06:36.168Z,10.61
2023-05-12T03:09:02.973Z,10.58
2023-05-12T03:11:29.829Z,10.54
2023-05-12T03:13:56.381Z,10.49
2023-05-12T03:16:22.948Z,10.48
2023-05-12T03:18:49.702Z,10.43
2023-05-12T03:21:16.276Z,10.40
2023-05-12T03:23:43.205Z,10.39
2023-05-12T03:26:10.353Z,10.43
2023-05-12T03:28:36.936Z,10.41
2023-05-12T03:31:03.658Z,10.35
2023-05-12T03:33:30.815Z,10.33
2023-05-12T03:35:57.557Z,10.30
2023-05-12T03:38:24.251Z,10.28
2023-05-12T03:40:50.697Z,10.25
2023-05-12T03:43:17.440Z,10.23
2023-05-12T03:45:44.259Z,10.31
2023-05-12T03:48:10.997Z,10.30
2023-05-12T03:50:37.485Z,10.25
2023-05-12T03:53:04.159Z,10.22
2023-05-12T03:55:30.661Z,10.26
2023-05-12T03:57:57.353Z,10.26
2023-05-12T04:00:24.211Z,10.23
2023-05-12T04:02:50.743Z,10.24
2023-05-12T04:05:17.790Z,10.27
2023-05-12T04:07:44.757Z,10.27
2023-05-12T04:10:11.581Z,10.35
2023-05-12T04:12:38.318Z,10.29
2023-05-12T04:15:05.938Z,10.33
2023-05-12T04:17:32.809Z,10.33
2023-05-12T04:19:59.862Z,10.39
2023-05-12T04:22:26.970Z,10.42
2023-05-12T04:24:53.726Z,10.49
2023-05-12T04:27:22.910Z,10.53
2023-05-12T04:29:49.423Z,10.61
2023-05-12T04:32:16.179Z,10.71
2023-05-12T04:34:42.946Z,10.69
2023-05-12T04:37:09.468Z,10.73
2023-05-12T04:39:37.792Z,10.80
2023-05-12T04:42:04.514Z,10.93
2023-05-12T04:44:30.957Z,11.00
2023-05-12T04:46:57.452Z,11.10
2023-05-12T04:49:24.206Z,11.23
2023-05-12T04:51:50.634Z,11.34
2023-05-12T04:54:17.165Z,11.42
2023-05-12T04:56:47.138Z,11.51
2023-05-12T04:59:14.234Z,11.66
2023-05-12T05:01:41.058Z,11.78
2023-05-12T05:04:07.815Z,11.87
2023-05-12T05:06:34.582Z,11.96
2023-05-12T05:09:01.297Z,12.02
2023-05-12T05:11:28.039Z,12.16
2023-05-12T05:13:54.756Z,12.25
2023-05-12T05:16:21.310Z,12.31
2023-05-12T05:18:47.896Z,12.38
2023-05-12T05:21:15.116Z,12.41
2023-05-12T05:23:42.173Z,12.44
2023-05-12T05:26:09.159Z,12.52
2023-05-12T05:28:36.125Z,12.65
2023-05-12T05:31:02.743Z,12.69
2023-05-12T05:33:29.238Z,12.77
2023-05-12T05:35:55.983Z,12.87
2023-05-12T05:38:22.798Z,12.86
2023-05-12T05:40:53.466Z,12.98
2023-05-12T05:43:21.177Z,13.05
2023-05-12T05:45:47.842Z,13.14
2023-05-12T05:48:14.723Z,13.26
2023-05-12T05:50:41.214Z,13.41
2023-05-12T05:53:07.770Z,13.45
2023-05-12T05:55:35.733Z,13.52
2023-05-12T05:58:03.676Z,13.57
2023-05-12T06:00:30.459Z,13.69
2023-05-12T06:02:57.324Z,13.81
2023-05-12T06:05:24.162Z,13.87
2023-05-12T06:07:51.017Z,13.93
2023-05-12T06:10:17.592Z,14.06
2023-05-12T06:12:44.670Z,14.12
2023-05-12T06:15:11.454Z,14.25
2023-05-12T06:17:38.668Z,14.29
2023-05-12T06:20:08.834Z,14.33
2023-05-12T06:22:36.575Z,14.46
2023-05-12T06:25:03.359Z,14.56
2023-05-12T06:27:30.092Z,14.61
2023-05-12T06:29:58.361Z,14.70
2023-05-12T06:32:24.924Z,14.77
2023-05-12T06:34:52.396Z,14.84
2023-05-12T06:37:19.073Z,14.89
2023-05-12T06:39:45.509Z,15.00
2023-05-12T06:42:12.322Z,15.08
2023-05-12T06:44:41.763Z,15.17
2023-05-12T06:47:09.305Z,15.20
2023-05-12T06:49:35.851Z,15.26
2023-05-12T06:52:03.382Z,15.42
2023-05-12T06:54:30.184Z,15.48
2023-05-12T06:56:56.952Z,15.55
2023-05-12T06:59:23.967Z,15.69
2023-05-12T07:01:50.363Z,15.76
2023-05-12T07:04:17.277Z,15.82
2023-05-12T07:06:43.774Z,15.92
2023-05-12T07:09:10.334Z,15.91
2023-05-12T07:11:38.239Z,16.02
2023-05-12T07:14:04.990Z,16.18
2023-05-12T07:16:31.792Z,16.27
2023-05-12T07:18:58.287Z,16.30
2023-05-12T07:21:25.055Z,16.52
2023-05-12T07:23:51.867Z,16.59
2023-05-12T07:26:19.079Z,16.71
2023-05-12T07:28:45.562Z,16.78
2023-05-12T07:31:12.302Z,16.86
2023-05-12T07:33:39.002Z,17.02
2023-05-12T07:36:06.048Z,17.11
2023-05-12T07:38:32.609Z,17.13
2023-05-12T07:41:00.492Z,17.39
2023-05-12T07:43:27.580Z,17.47
2023-05-12T07:45:55.889Z,17.51
2023-05-12T07:48:23.908Z,17.66
2023-05-12T07:50:50.383Z,17.80
2023-05-12T07:53:16.813Z,17.91
2023-05-12T07:55:43.554Z,18.09
2023-05-12T07:58:10.330Z,18.16
2023-05-12T08:00:37.135Z,18.33
2023-05-12T08:03:04.834Z,18.38
2023-05-12T08:05:32.121Z,18.54
2023-05-12T08:07:58.602Z,18.64
2023-05-12T08:10:25.608Z,18.70
2023-05-12T08:12:52.395Z,18.89
2023-05-12T08:15:18.977Z,19.03
2023-05-12T08:17:45.715Z,19.01
2023-05-12T08:20:12.287Z,19.12
2023-05-12T08:22:39.030Z,19.36
2023-05-12T08:25:05.958Z,19.44
2023-05-12T08:27:32.477Z,19.51
2023-05-12T08:29:59.205Z,19.64
2023-05-12T08:32:25.996Z,19.78
2023-05-12T08:34:52.779Z,19.94
2023-05-12T08:37:19.542Z,19.92
2023-05-12T08:39:46.340Z,19.96
2023-05-12T08:42:27.527Z,19.98
2023-05-12T08:44:54.323Z,20.23
2023-05-12T08:47:22.235Z,20.38
2023-05-12T08:50:03.674Z,20.40
2023-05-12T08:52:33.178Z,20.58
2023-05-12T08:55:01.075Z,20.63
2023-05-12T08:57:30.133Z,20.63
2023-05-12T08:59:57.800Z,20.85
2023-05-12T09:02:24.691Z,20.97
2023-05-12T09:04:52.601Z,20.90
2023-05-12T09:07:19.820Z,21.11
2023-05-12T09:09:48.799Z,21.11
2023-05-12T09:12:18.465Z,21.34
2023-05-12T09:14:46.432Z,21.37
2023-05-12T09:17:13.730Z,21.82
2023-05-12T09:19:40.251Z,21.92
2023-05-12T09:22:06.960Z,21.69
2023-05-12T09:24:37.032Z,21.87
2023-05-12T09:27:03.928Z,21.54
2023-05-12T09:29:34.352Z,21.64
2023-05-12T09:32:06.490Z,21.74
2023-05-12T09:34:35.195Z,21.85
2023-05-12T09:37:05.159Z,22.05
2023-05-12T09:39:31.988Z,22.32
2023-05-12T09:42:02.310Z,22.19
2023-05-12T09:44:32.930Z,22.16
2023-05-12T09:47:08.690Z,22.33
2023-05-12T09:49:35.406Z,22.70
2023-05-12T09:52:04.210Z,22.60
2023-05-12T09:54:32.500Z,22.50
2023-05-12T09:57:02.009Z,22.17
2023-05-12T09:59:31.787Z,22.48
2023-05-12T10:02:05.631Z,22.43
2023-05-12T10:04:58.296Z,22.46
2023-05-12T10:07:27.958Z,22.93
2023-05-12T10:10:01.312Z,22.80
2023-05-12T10:12:28.969Z,23.22
2023-05-12T10:14:56.675Z,23.63
2023-05-12T10:17:25.568Z,23.16
2023-05-12T10:19:53.118Z,23.02
2023-05-12T10:22:20.181Z,23.19
2023-05-12T10:24:48.961Z,23.31
2023-05-12T10:27:16.498Z,23.26
2023-05-12T10:29:45.535Z,23.40
2023-05-12T10:32:13.421Z,23.27
2023-05-12T10:34:41.134Z,23.28
2023-05-12T10:37:11.702Z,23.22
2023-05-12T10:39:48.022Z,23.08
2023-05-12T10:42:21.460Z,23.38
2023-05-12T10:44:53.146Z,23.40
2023-05-12T10:47:24.628Z,23.54
2023-05-12T10:49:56.588Z,23.58
2023-05-12T10:52:23.303Z,23.75
2023-05-12T10:54:49.955Z,23.76
2023-05-12T10:57:21.588Z,24.16
2023-05-12T10:59:56.934Z,23.95
2023-05-12T11:02:27.551Z,23.90
2023-05-12T11:04:57.961Z,23.91
2023-05-12T11:07:30.672Z,23.75
2023-05-12T11:10:01.472Z,24.05
2023-05-12T11:12:31.523Z,24.29
2023-05-12T11:15:01.688Z,24.54
2023-05-12T11:17:28.666Z,24.61
2023-05-12T11:19:55.292Z,24.61
2023-05-12T11:22:23.704Z,24.53
2023-05-12T11:24:52.185Z,24.43
2023-05-12T11:27:20.715Z,24.68
2023-05-12T11:29:57.843Z,24.98
2023-05-12T11:32:24.461Z,24.87
2023-05-12T11:34:50.818Z,25.12
2023-05-12T11:37:17.323Z,24.60
2023-05-12T11:39:43.897Z,24.78
2023-05-12T11:42:13.421Z,24.95
2023-05-12T11:44:48.700Z,25.26
2023-05-12T11:47:16.619Z,25.11
2023-05-12T11:49:46.268Z,25.04
2023-05-12T11:52:12.879Z,24.95
2023-05-12T11:54:39.587Z,24.88
2023-05-12T11:57:06.423Z,24.85
2023-05-12T11:59:34.891Z,25.03
2023-05-12T12:02:03.510Z,25.30
2023-05-12T12:04:34.359Z,25.39
2023-05-12T12:07:01.517Z,25.48
2023-05-12T12:09:39.308Z,25.12
2023-05-12T12:12:07.481Z,25.18
2023-05-12T12:14:36.383Z,24.73
2023-05-12T12:17:03.116Z,24.94
2023-05-12T12:19:29.832Z,24.98
2023-05-12T12:21:58.066Z,24.68
2023-05-12T12:24:25.320Z,25.05
2023-05-12T12:26:52.974Z,25.38
2023-05-12T12:29:19.438Z,25.64
2023-05-12T12:31:46.597Z,25.58
2023-05-12T12:34:13.579Z,24.97
2023-05-12T12:36:40.030Z,25.16
2023-05-12T12:39:07.690Z,25.52
2023-05-12T12:41:34.384Z,25.37
2023-05-12T12:44:01.323Z,25.94
2023-05-12T12:46:28.161Z,25.57
2023-05-12T12:48:54.837Z,25.48
2023-05-12T12:51:21.334Z,24.72
2023-05-12T12:53:47.794Z,24.86
2023-05-12T12:56:14.516Z,24.95
2023-05-12T12:58:42.379Z,24.94
2023-05-12T13:01:09.178Z,25.33
2023-05-12T13:03:36.018Z,25.19
2023-05-12T13:06:02.822Z,24.63
2023-05-12T13:08:29.574Z,24.69
2023-05-12T13:10:56.510Z,24.95
2023-05-12T13:13:23.140Z,25.19
2023-05-12T13:15:49.722Z,25.40
2023-05-12T13:18:16.413Z,25.74
2023-05-12T13:20:42.776Z,25.87
2023-05-12T13:23:10.687Z,25.89
2023-05-12T13:25:37.176Z,25.64
2023-05-12T13:28:03.745Z,25.27
2023-05-12T13:30:30.523Z,25.35
2023-05-12T13:32:57.228Z,25.36
2023-05-12T13:35:23.799Z,25.18
2023-05-12T13:37:50.161Z,25.03
2023-05-12T13:40:16.877Z,25.44
2023-05-12T13:42:44.742Z,25.64
2023-05-12T13:45:11.562Z,25.93
2023-05-12T13:47:38.362Z,25.83
2023-05-12T13:50:06.368Z,25.50
2023-05-12T13:52:32.948Z,25.51
2023-05-12T13:55:00.203Z,25.44
2023-05-12T13:57:27.069Z,25.60
2023-05-12T13:59:56.554Z,25.38
2023-05-12T14:02:25.690Z,25.08
2023-05-12T14:04:55.722Z,25.14
2023-05-12T14:07:25.793Z,25.25
2023-05-12T14:09:52.312Z,25.00
2023-05-12T14:12:19.413Z,24.95
2023-05-12T14:14:46.713Z,24.63
2023-05-12T14:17:13.252Z,24.57
2023-05-12T14:19:39.985Z,24.50
2023-05-12T14:25:04.755Z,23.98
2023-05-12T14:27:31.355Z,24.11
2023-05-12T14:29:58.120Z,24.21
2023-05-12T14:32:24.814Z,24.09
2023-05-12T14:34:51.237Z,24.18
2023-05-12T14:37:17.760Z,23.98
2023-05-12T14:39:45.637Z,24.18
2023-05-12T14:42:12.129Z,23.89
2023-05-12T14:44:38.646Z,24.00
2023-05-12T14:47:07.532Z,23.93
2023-05-12T14:49:35.767Z,23.93
2023-05-12T14:52:02.831Z,23.86
2023-05-12T14:54:29.743Z,24.01
2023-05-12T14:56:56.312Z,23.84
2023-05-12T14:59:22.895Z,23.76
2023-05-12T15:01:50.062Z,23.63
2023-05-12T15:04:16.945Z,23.65
2023-05-12T15:06:43.549Z,23.39
2023-05-12T15:09:10.148Z,23.34
2023-05-12T15:11:36.782Z,23.27
2023-05-12T15:14:03.743Z,23.40
2023-05-12T15:16:30.419Z,23.27
2023-05-12T15:18:57.012Z,23.26
2023-05-12T15:21:23.592Z,23.16
2023-05-12T15:23:50.176Z,23.18
2023-05-12T15:26:31.825Z,23.10
2023-05-12T15:29:00.694Z,23.21
2023-05-12T15:31:29.526Z,23.12
2023-05-12T15:33:57.279Z,23.02
2023-05-12T15:36:24.156Z,23.05
2023-05-12T15:38:52.434Z,22.85
2023-05-12T15:41:19.121Z,22.82
2023-05-12T15:43:45.872Z,22.77
2023-05-12T15:46:12.334Z,22.69
2023-05-12T15:48:39.000Z,22.43
2023-05-12T15:51:05.798Z,22.42
2023-05-12T15:53:32.568Z,22.32
2023-05-12T15:56:02.050Z,22.26
2023-05-12T15:58:28.862Z,22.24
2023-05-12T16:00:56.159Z,22.17
2023-05-12T16:03:23.307Z,22.16
2023-05-12T16:05:49.955Z,21.95
2023-05-12T16:08:17.031Z,21.95
2023-05-12T16:10:44.260Z,22.09
2023-05-12T16:13:11.058Z,22.00
2023-05-12T16:15:37.682Z,21.84
2023-05-12T16:18:04.330Z,21.77
2023-05-12T16:20:30.883Z,21.68
2023-05-12T16:22:58.552Z,21.75
2023-05-12T16:25:25.073Z,21.62
2023-05-12T16:27:52.746Z,21.62
2023-05-12T16:30:20.358Z,21.67
2023-05-12T16:32:47.400Z,21.53
2023-05-12T16:35:14.512Z,21.49
2023-05-12T16:37:41.375Z,21.48
2023-05-12T16:40:08.992Z,21.29
2023-05-12T16:42:35.472Z,21.24
2023-05-12T16:45:02.287Z,21.15
2023-05-12T16:47:28.710Z,21.08
2023-05-12T16:49:55.718Z,21.10
2023-05-12T16:52:22.515Z,21.04
2023-05-12T16:54:48.835Z,20.97
2023-05-12T16:57:15.343Z,20.88
2023-05-12T16:59:42.129Z,20.86
2023-05-12T17:02:08.961Z,20.88
2023-05-12T17:04:35.750Z,20.75
2023-05-12T17:07:02.454Z,20.69
2023-05-12T17:09:29.329Z,20.69
2023-05-12T17:11:55.859Z,20.67
2023-05-12T17:14:22.519Z,20.71
2023-05-12T17:16:48.935Z,20.62
2023-05-12T17:19:15.510Z,20.54
2023-05-12T17:21:42.213Z,20.48
2023-05-12T17:24:09.015Z,20.38
2023-05-12T17:26:35.587Z,20.37
2023-05-12T17:29:02.589Z,20.26
2023-05-12T17:31:29.332Z,20.18
2023-05-12T17:33:55.816Z,20.07
2023-05-12T17:36:22.357Z,20.00
2023-05-12T17:38:50.848Z,19.97
2023-05-12T17:41:18.480Z,19.84
2023-05-12T17:43:45.253Z,19.81
2023-05-12T17:46:12.222Z,19.74
2023-05-12T17:48:39.026Z,19.70
2023-05-12T17:51:05.652Z,19.61
2023-05-12T17:53:33.193Z,19.54
2023-05-12T17:56:00.357Z,19.49
2023-05-12T17:58:27.432Z,19.42
2023-05-12T18:00:54.453Z,19.31
2023-05-12T18:03:21.319Z,19.29
2023-05-12T18:05:48.353Z,19.20
2023-05-12T18:08:16.259Z,19.18
2023-05-12T18:10:43.384Z,19.06
2023-05-12T18:13:10.762Z,18.97
2023-05-12T18:15:37.912Z,18.91
2023-05-12T18:18:05.044Z,18.79
2023-05-12T18:20:35.672Z,18.77
2023-05-12T18:23:02.414Z,18.72
2023-05-12T18:25:29.011Z,18.62
2023-05-12T18:27:55.876Z,18.52
2023-05-12T18:30:25.794Z,18.48
2023-05-12T18:32:54.114Z,18.41
2023-05-12T18:35:20.900Z,18.34
2023-05-12T18:37:47.487Z,18.29
2023-05-12T18:40:14.217Z,18.20
2023-05-12T18:42:41.269Z,18.11
2023-05-12T18:45:08.476Z,18.03
2023-05-12T18:47:35.330Z,17.98
2023-05-12T18:50:02.068Z,17.94
2023-05-12T18:52:28.833Z,17.92
2023-05-12T18:54:55.251Z,17.75
2023-05-12T18:57:24.864Z,17.66
2023-05-12T18:59:51.754Z,17.62
2023-05-12T19:02:18.427Z,17.49
2023-05-12T19:04:45.094Z,17.38
2023-05-12T19:07:12.222Z,17.31
2023-05-12T19:09:38.855Z,17.27
2023-05-12T19:12:06.188Z,17.18
2023-05-12T19:14:32.998Z,17.04
2023-05-12T19:16:59.463Z,17.05
2023-05-12T19:19:28.531Z,16.96
2023-05-12T19:21:56.145Z,16.87
2023-05-12T19:24:25.945Z,16.82
2023-05-12T19:26:53.091Z,16.70
2023-05-12T19:29:19.688Z,16.67
2023-05-12T19:31:46.565Z,16.61
2023-05-12T19:34:13.199Z,16.58
2023-05-12T19:36:39.979Z,16.55
2023-05-12T19:39:06.644Z,16.51
2023-05-12T19:41:39.371Z,16.42
2023-05-12T19:44:06.022Z,16.40
2023-05-12T19:46:33.045Z,16.38
2023-05-12T19:49:00.298Z,16.21
2023-05-12T19:51:27.092Z,16.08
2023-05-12T19:53:53.684Z,16.09
2023-05-12T19:56:20.670Z,16.03
2023-05-12T19:58:47.230Z,15.99
2023-05-12T20:01:13.939Z,15.95
2023-05-12T20:03:41.723Z,15.91
2023-05-12T20:06:10.300Z,15.91
2023-05-12T20:08:37.109Z,15.82
2023-05-12T20:11:03.866Z,15.74
2023-05-12T20:13:31.592Z,15.68
2023-05-12T20:16:00.747Z,15.63
2023-05-12T20:18:27.369Z,15.65
2023-05-12T20:20:54.446Z,15.62
2023-05-12T20:23:21.434Z,15.59
2023-05-12T20:25:48.033Z,15.60
2023-05-12T20:28:14.633Z,15.50
2023-05-12T20:30:41.355Z,15.46
2023-05-12T20:33:08.230Z,15.39
2023-05-12T20:35:34.769Z,15.40
2023-05-12T20:38:01.347Z,15.34
2023-05-12T20:40:28.864Z,15.32
2023-05-12T20:42:55.667Z,15.33
2023-05-12T20:45:23.274Z,15.32
2023-05-12T20:47:50.233Z,15.25
2023-05-12T20:50:16.775Z,15.20
2023-05-12T20:52:43.361Z,15.23
2023-05-12T20:55:10.048Z,15.23
2023-05-12T20:57:36.848Z,15.30
2023-05-12T21:00:03.579Z,15.18
2023-05-12T21:02:30.522Z,15.20
2023-05-12T21:04:57.373Z,15.13
2023-05-12T21:07:24.196Z,15.18
2023-05-12T21:09:50.817Z,15.18
2023-05-12T21:12:17.226Z,15.16
2023-05-12T21:14:45.233Z,15.09
2023-05-12T21:17:12.331Z,15.02
2023-05-12T21:19:40.268Z,14.97
2023-05-12T21:22:07.958Z,14.96
2023-05-12T21:24:35.186Z,14.88
2023-05-12T21:27:02.099Z,14.85
2023-05-12T21:29:28.721Z,14.81
2023-05-12T21:31:57.335Z,14.74
2023-05-12T21:34:24.318Z,14.71
2023-05-12T21:36:50.838Z,14.66
2023-05-12T21:39:17.425Z,14.62
2023-05-12T21:41:44.503Z,14.57
2023-05-12T21:44:11.565Z,14.49
2023-05-12T21:46:38.623Z,14.47
2023-05-12T21:49:05.229Z,14.51
2023-05-12T21:51:32.005Z,14.44
2023-05-12T21:53:59.894Z,14.42
2023-05-12T21:56:26.685Z,14.37
2023-05-12T21:58:53.440Z,14.30
2023-05-12T22:01:20.182Z,14.25
2023-05-12T22:03:47.130Z,14.19
2023-05-12T22:06:13.901Z,14.19
2023-05-12T22:08:40.451Z,14.14
2023-05-12T22:11:07.222Z,14.06
2023-05-12T22:13:33.770Z,14.00
2023-05-12T22:16:00.555Z,14.00
2023-05-12T22:18:27.127Z,14.07
2023-05-12T22:20:53.732Z,14.00
2023-05-12T22:23:20.451Z,13.96
2023-05-12T22:25:47.156Z,13.95
2023-05-12T22:28:13.876Z,13.92
2023-05-12T22:30:40.426Z,13.83
2023-05-12T22:33:07.231Z,13.89
2023-05-12T22:35:33.925Z,13.85
2023-05-12T22:38:00.768Z,13.87
2023-05-12T22:40:27.599Z,13.82
2023-05-12T22:42:56.280Z,13.78
2023-05-12T22:45:23.053Z,13.68
2023-05-12T22:47:49.999Z,13.67
2023-05-12T22:50:16.344Z,13.66
2023-05-12T22:52:43.185Z,13.65
2023-05-12T22:55:10.346Z,13.64
2023-05-12T22:57:37.092Z,13.55
2023-05-12T23:00:05.788Z,13.52
2023-05-12T23:02:32.618Z,13.49
2023-05-12T23:04:59.516Z,13.56
2023-05-12T23:07:26.566Z,13.53
2023-05-12T23:09:53.145Z,13.46
2023-05-12T23:12:19.883Z,13.44
2023-05-12T23:14:46.406Z,13.39
2023-05-12T23:17:13.136Z,13.34
2023-05-12T23:19:39.826Z,13.33
2023-05-12T23:22:06.863Z,13.37
2023-05-12T23:24:33.194Z,13.33
2023-05-12T23:26:59.710Z,13.24
2023-05-12T23:29:26.177Z,13.22
2023-05-12T23:31:52.758Z,13.21
2023-05-12T23:34:19.290Z,13.18
2023-05-12T23:36:45.909Z,13.16
2023-05-12T23:39:12.831Z,13.10
2023-05-12T23:41:39.651Z,13.06
2023-05-12T23:44:06.256Z,13.00
2023-05-12T23:46:32.849Z,12.98
2023-05-12T23:49:00.622Z,12.96
2023-05-12T23:51:27.839Z,12.91
2023-05-12T23:53:54.432Z,12.91
2023-05-12T23:56:21.512Z,12.89
2023-05-12T23:58:48.084Z,12.87
